createdAt,value
2023-05-10T05:01:12.875Z,492.00
2023-05-10T05:02:12.772Z,494.00
2023-05-10T05:03:12.860Z,493.00
2023-05-10T05:04:12.770Z,492.00
2023-05-10T05:05:12.756Z,492.00
2023-05-10T05:06:12.763Z,492.00
2023-05-10T05:07:12.749Z,492.00
2023-05-10T05:08:12.725Z,492.00
2023-05-10T05:09:12.727Z,491.00
2023-05-10T05:10:12.718Z,489.00
2023-05-10T05:11:12.732Z,491.00
2023-05-10T05:12:12.723Z,494.00
2023-05-10T05:13:12.750Z,495.00
2023-05-10T05:14:12.713Z,500.00
2023-05-10T05:15:12.717Z,501.00
2023-05-10T05:16:12.807Z,501.00
2023-05-10T05:17:12.695Z,499.00
2023-05-10T05:18:12.712Z,497.00
2023-05-10T05:19:12.680Z,499.00
2023-05-10T05:20:12.670Z,501.00
2023-05-10T05:21:12.732Z,497.00
2023-05-10T05:22:12.771Z,498.00
2023-05-10T05:23:12.839Z,498.00
2023-05-10T05:24:12.899Z,498.00
2023-05-10T05:25:13.031Z,496.00
2023-05-10T05:26:13.057Z,497.00
2023-05-10T05:27:13.080Z,497.00
2023-05-10T05:28:13.126Z,497.00
2023-05-10T05:29:13.199Z,497.00
2023-05-10T05:30:13.225Z,497.00
2023-05-10T05:31:13.353Z,495.00
2023-05-10T05:32:13.390Z,493.00
2023-05-10T05:33:13.380Z,494.00
2023-05-10T05:34:13.422Z,495.00
2023-05-10T05:35:13.488Z,494.00
2023-05-10T05:36:13.581Z,494.00
2023-05-10T05:37:13.606Z,496.00
2023-05-10T05:38:13.698Z,497.00
2023-05-10T05:39:13.722Z,497.00
2023-05-10T05:40:13.817Z,499.00
2023-05-10T05:41:13.860Z,499.00
2023-05-10T05:42:13.896Z,501.00
2023-05-10T05:43:13.956Z,502.00
2023-05-10T05:44:14.122Z,501.00
2023-05-10T05:45:14.432Z,498.00
2023-05-10T05:46:14.166Z,499.00
2023-05-10T05:47:14.213Z,502.00
2023-05-10T05:48:14.252Z,505.00
2023-05-10T05:49:14.297Z,507.00
2023-05-10T05:50:14.377Z,510.00
2023-05-10T05:51:14.379Z,512.00
2023-05-10T05:52:14.471Z,516.00
2023-05-10T05:53:14.516Z,519.00
2023-05-10T05:54:14.644Z,526.00
2023-05-10T05:55:14.781Z,532.00
2023-05-10T05:56:14.709Z,553.00
2023-05-10T05:57:14.768Z,561.00
2023-05-10T05:58:14.751Z,572.00
2023-05-10T05:59:14.815Z,574.00
2023-05-10T06:00:14.910Z,578.00
2023-05-10T06:01:14.921Z,610.00
2023-05-10T06:02:14.989Z,622.00
2023-05-10T06:03:15.078Z,629.00
2023-05-10T06:04:15.162Z,641.00
2023-05-10T06:05:15.270Z,655.00
2023-05-10T06:06:15.197Z,709.00
2023-05-10T06:07:15.226Z,720.00
2023-05-10T06:08:15.272Z,726.00
2023-05-10T06:09:15.298Z,731.00
2023-05-10T06:10:15.352Z,728.00
2023-05-10T06:11:15.391Z,727.00
2023-05-10T06:12:15.400Z,728.00
2023-05-10T06:13:15.545Z,728.00
2023-05-10T06:14:15.481Z,724.00
2023-05-10T06:15:15.721Z,722.00
2023-05-10T06:16:15.672Z,721.00
2023-05-10T06:17:15.637Z,719.00
2023-05-10T06:18:15.666Z,721.00
2023-05-10T06:19:15.754Z,723.00
2023-05-10T06:20:15.812Z,723.00
2023-05-10T06:21:15.869Z,722.00
2023-05-10T06:22:15.860Z,732.00
2023-05-10T06:23:15.901Z,739.00
2023-05-10T06:24:15.979Z,740.00
2023-05-10T06:25:16.293Z,739.00
2023-05-10T06:26:16.029Z,740.00
2023-05-10T06:27:16.115Z,740.00
2023-05-10T06:28:16.136Z,743.00
2023-05-10T06:29:16.295Z,752.00
2023-05-10T06:30:16.216Z,758.00
2023-05-10T06:31:16.289Z,762.00
2023-05-10T06:32:16.290Z,764.00
2023-05-10T06:33:16.341Z,769.00
2023-05-10T06:34:16.388Z,774.00
2023-05-10T06:35:16.677Z,777.00
2023-05-10T06:36:16.496Z,780.00
2023-05-10T06:37:16.562Z,780.00
2023-05-10T06:38:16.612Z,784.00
2023-05-10T06:39:16.634Z,777.00
2023-05-10T06:40:16.677Z,779.00
2023-05-10T06:41:16.759Z,784.00
2023-05-10T06:42:16.790Z,788.00
2023-05-10T06:43:16.832Z,787.00
2023-05-10T06:44:16.896Z,790.00
2023-05-10T06:45:17.337Z,798.00
2023-05-10T06:46:16.989Z,801.00
2023-05-10T06:47:17.058Z,803.00
2023-05-10T06:48:17.115Z,807.00
2023-05-10T06:49:17.184Z,810.00
2023-05-10T06:50:17.206Z,812.00
2023-05-10T06:51:17.248Z,812.00
2023-05-10T06:52:17.335Z,814.00
2023-05-10T06:53:17.327Z,814.00
2023-05-10T06:54:17.394Z,812.00
2023-05-10T06:55:17.640Z,809.00
2023-05-10T06:56:17.504Z,813.00
2023-05-10T06:57:30.700Z,818.00
2023-05-10T06:58:18.506Z,826.00
2023-05-10T06:59:17.538Z,831.00
2023-05-10T07:00:17.762Z,838.00
2023-05-10T07:01:17.640Z,845.00
2023-05-10T07:02:17.592Z,850.00
2023-05-10T07:03:17.576Z,848.00
2023-05-10T07:04:17.513Z,852.00
2023-05-10T07:05:17.686Z,809.00
2023-05-10T07:06:29.377Z,800.00
2023-05-10T07:07:18.452Z,786.00
2023-05-10T07:08:17.454Z,799.00
2023-05-10T07:09:17.436Z,774.00
2023-05-10T07:10:17.464Z,754.00
2023-05-10T07:11:17.471Z,759.00
2023-05-10T07:12:17.533Z,763.00
2023-05-10T07:13:17.461Z,765.00
2023-05-10T07:14:17.395Z,759.00
2023-05-10T07:15:17.632Z,755.00
2023-05-10T07:16:17.404Z,756.00
2023-05-10T07:17:17.426Z,755.00
2023-05-10T07:18:17.479Z,753.00
2023-05-10T07:19:17.357Z,752.00
2023-05-10T07:20:17.337Z,754.00
2023-05-10T07:21:17.344Z,757.00
2023-05-10T07:22:17.335Z,761.00
2023-05-10T07:23:17.702Z,760.00
2023-05-10T07:24:17.471Z,733.00
2023-05-10T07:25:17.729Z,746.00
2023-05-10T07:26:17.512Z,751.00
2023-05-10T07:27:17.592Z,748.00
2023-05-10T07:28:17.639Z,749.00
2023-05-10T07:29:17.662Z,740.00
2023-05-10T07:30:17.738Z,727.00
2023-05-10T07:31:17.910Z,722.00
2023-05-10T07:32:17.858Z,721.00
2023-05-10T07:33:17.933Z,729.00
2023-05-10T07:34:17.929Z,736.00
2023-05-10T07:35:18.078Z,740.00
2023-05-10T07:36:18.000Z,752.00
2023-05-10T07:37:18.067Z,759.00
2023-05-10T07:38:18.109Z,760.00
2023-05-10T07:39:26.646Z,760.00
2023-05-10T07:40:19.265Z,756.00
2023-05-10T07:41:18.167Z,753.00
2023-05-10T07:42:18.135Z,747.00
2023-05-10T07:43:18.136Z,737.00
2023-05-10T07:44:18.131Z,732.00
2023-05-10T07:45:18.278Z,738.00
2023-05-10T07:46:18.152Z,752.00
2023-05-10T07:47:18.096Z,761.00
2023-05-10T07:48:18.112Z,759.00
2023-05-10T07:49:18.134Z,758.00
2023-05-10T07:50:18.101Z,758.00
2023-05-10T07:51:18.092Z,760.00
2023-05-10T07:52:18.089Z,773.00
2023-05-10T07:53:18.108Z,802.00
2023-05-10T07:54:18.455Z,811.00
2023-05-10T07:55:18.389Z,840.00
2023-05-10T07:56:18.222Z,782.00
2023-05-10T07:57:18.244Z,751.00
2023-05-10T07:58:18.277Z,757.00
2023-05-10T07:59:18.421Z,763.00
2023-05-10T08:00:18.344Z,832.00
2023-05-10T08:01:18.309Z,797.00
2023-05-10T08:02:18.461Z,781.00
2023-05-10T08:03:18.525Z,781.00
2023-05-10T08:04:18.509Z,781.00
2023-05-10T08:05:18.677Z,768.00
2023-05-10T08:06:18.452Z,764.00
2023-05-10T08:07:18.407Z,769.00
2023-05-10T08:08:18.450Z,767.00
2023-05-10T08:09:18.449Z,760.00
2023-05-10T08:10:18.402Z,764.00
2023-05-10T08:11:18.477Z,767.00
2023-05-10T08:12:18.448Z,762.00
2023-05-10T08:13:18.419Z,757.00
2023-05-10T08:14:18.447Z,752.00
2023-05-10T08:15:18.692Z,747.00
2023-05-10T08:16:18.472Z,743.00
2023-05-10T08:17:19.764Z,741.00
2023-05-10T08:18:18.602Z,746.00
2023-05-10T08:19:18.427Z,717.00
2023-05-10T08:20:18.473Z,725.00
2023-05-10T08:21:18.437Z,728.00
2023-05-10T08:22:18.451Z,739.00
2023-05-10T08:23:18.425Z,739.00
2023-05-10T08:24:18.438Z,727.00
2023-05-10T08:25:18.579Z,719.00
2023-05-10T08:26:18.438Z,720.00
2023-05-10T08:27:18.434Z,724.00
2023-05-10T08:28:18.474Z,721.00
2023-05-10T08:29:18.490Z,730.00
2023-05-10T08:30:18.470Z,758.00
2023-05-10T08:31:18.512Z,777.00
2023-05-10T08:32:18.525Z,773.00
2023-05-10T08:33:18.472Z,785.00
2023-05-10T08:34:18.510Z,786.00
2023-05-10T08:35:18.718Z,782.00
2023-05-10T08:36:18.557Z,790.00
2023-05-10T08:37:18.525Z,796.00
2023-05-10T08:38:18.598Z,805.00
2023-05-10T08:39:29.359Z,826.00
2023-05-10T08:40:19.590Z,838.00
2023-05-10T08:41:18.594Z,847.00
2023-05-10T08:42:18.563Z,858.00
2023-05-10T08:43:18.568Z,868.00
2023-05-10T08:44:18.607Z,873.00
2023-05-10T08:45:18.774Z,883.00
2023-05-10T08:46:18.632Z,876.00
2023-05-10T08:47:18.527Z,776.00
2023-05-10T08:48:18.644Z,754.00
2023-05-10T08:49:18.501Z,717.00
2023-05-10T08:50:18.556Z,639.00
2023-05-10T08:51:18.529Z,633.00
2023-05-10T08:52:18.515Z,599.00
2023-05-10T08:53:18.509Z,600.00
2023-05-10T08:54:18.522Z,570.00
2023-05-10T08:55:18.677Z,571.00
2023-05-10T08:56:18.547Z,575.00
2023-05-10T08:57:18.557Z,577.00
2023-05-10T08:58:18.636Z,624.00
2023-05-10T08:59:18.652Z,615.00
2023-05-10T09:00:18.671Z,599.00
2023-05-10T09:01:18.729Z,589.00
2023-05-10T09:02:18.920Z,577.00
2023-05-10T09:03:18.756Z,577.00
2023-05-10T09:04:18.928Z,566.00
2023-05-10T09:05:18.948Z,558.00
2023-05-10T09:06:18.953Z,561.00
2023-05-10T09:07:18.937Z,564.00
2023-05-10T09:08:19.057Z,598.00
2023-05-10T09:09:19.102Z,594.00
2023-05-10T09:10:19.175Z,601.00
2023-05-10T09:11:19.210Z,582.00
2023-05-10T09:12:19.240Z,539.00
2023-05-10T09:13:19.298Z,537.00
2023-05-10T09:14:19.365Z,542.00
2023-05-10T09:15:19.559Z,543.00
2023-05-10T09:16:21.922Z,590.00
2023-05-10T09:17:19.558Z,579.00
2023-05-10T09:18:19.567Z,561.00
2023-05-10T09:19:19.417Z,525.00
2023-05-10T09:20:19.500Z,539.00
2023-05-10T09:21:19.427Z,552.00
2023-05-10T09:22:19.418Z,553.00
2023-05-10T09:23:19.410Z,547.00
2023-05-10T09:24:19.397Z,540.00
2023-05-10T09:25:19.661Z,536.00
2023-05-10T09:26:19.391Z,536.00
2023-05-10T09:27:19.413Z,530.00
2023-05-10T09:28:19.386Z,517.00
2023-05-10T09:29:19.404Z,506.00
2023-05-10T09:30:19.439Z,503.00
2023-05-10T09:31:19.423Z,508.00
2023-05-10T09:32:19.349Z,519.00
2023-05-10T09:33:19.344Z,527.00
2023-05-10T09:34:19.336Z,543.00
2023-05-10T09:35:19.420Z,556.00
2023-05-10T09:36:19.351Z,559.00
2023-05-10T09:37:19.325Z,563.00
2023-05-10T09:38:19.317Z,578.00
2023-05-10T09:39:19.302Z,598.00
2023-05-10T09:40:19.277Z,618.00
2023-05-10T09:41:19.258Z,629.00
2023-05-10T09:42:19.280Z,629.00
2023-05-10T09:43:19.300Z,632.00
2023-05-10T09:44:19.260Z,639.00
2023-05-10T09:45:19.382Z,641.00
2023-05-10T09:46:19.292Z,638.00
2023-05-10T09:47:19.262Z,639.00
2023-05-10T09:48:19.250Z,644.00
2023-05-10T09:49:19.221Z,648.00
2023-05-10T09:50:19.234Z,668.00
2023-05-10T09:51:19.231Z,669.00
2023-05-10T09:52:19.190Z,673.00
2023-05-10T09:53:19.206Z,678.00
2023-05-10T09:54:19.193Z,682.00
2023-05-10T09:55:19.232Z,687.00
2023-05-10T09:56:19.170Z,693.00
2023-05-10T09:57:19.173Z,699.00
2023-05-10T09:58:19.164Z,715.00
2023-05-10T09:59:19.145Z,734.00
2023-05-10T10:00:19.185Z,767.00
2023-05-10T10:01:19.164Z,774.00
2023-05-10T10:02:19.163Z,779.00
2023-05-10T10:03:19.150Z,780.00
2023-05-10T10:04:19.167Z,786.00
2023-05-10T10:05:19.290Z,790.00
2023-05-10T10:06:29.566Z,833.00
2023-05-10T10:07:20.206Z,839.00
2023-05-10T10:08:19.105Z,848.00
2023-05-10T10:09:19.089Z,862.00
2023-05-10T10:10:19.097Z,875.00
2023-05-10T10:11:19.108Z,894.00
2023-05-10T10:12:19.065Z,913.00
2023-05-10T10:13:19.082Z,937.00
2023-05-10T10:14:19.071Z,944.00
2023-05-10T10:15:19.233Z,942.00
2023-05-10T10:16:19.052Z,951.00
2023-05-10T10:17:19.017Z,976.00
2023-05-10T10:18:19.059Z,974.00
2023-05-10T10:19:19.011Z,983.00
2023-05-10T10:20:19.371Z,1055.00
2023-05-10T10:21:18.990Z,1057.00
2023-05-10T10:22:18.976Z,1075.00
2023-05-10T10:23:19.005Z,1090.00
2023-05-10T10:24:18.998Z,1089.00
2023-05-10T10:25:19.164Z,1083.00
2023-05-10T10:26:19.139Z,1074.00
2023-05-10T10:27:19.128Z,1054.00
2023-05-10T10:28:19.170Z,977.00
2023-05-10T10:29:19.200Z,978.00
2023-05-10T10:30:19.262Z,993.00
2023-05-10T10:31:19.349Z,1003.00
2023-05-10T10:32:19.370Z,1059.00
2023-05-10T10:33:27.783Z,990.00
2023-05-10T10:34:20.406Z,991.00
2023-05-10T10:35:19.382Z,992.00
2023-05-10T10:36:20.000Z,983.00
2023-05-10T10:37:19.358Z,972.00
2023-05-10T10:38:19.369Z,959.00
2023-05-10T10:39:19.375Z,947.00
2023-05-10T10:40:19.352Z,942.00
2023-05-10T10:41:19.318Z,949.00
2023-05-10T10:42:19.328Z,955.00
2023-05-10T10:43:19.333Z,910.00
2023-05-10T10:44:19.390Z,873.00
2023-05-10T10:45:19.491Z,837.00
2023-05-10T10:46:19.497Z,834.00
2023-05-10T10:47:19.494Z,826.00
2023-05-10T10:48:19.551Z,805.00
2023-05-10T10:49:19.565Z,805.00
2023-05-10T10:50:19.631Z,815.00
2023-05-10T10:51:19.707Z,818.00
2023-05-10T10:52:19.707Z,806.00
2023-05-10T10:53:19.821Z,701.00
2023-05-10T10:54:19.722Z,672.00
2023-05-10T10:55:19.941Z,678.00
2023-05-10T10:56:19.719Z,673.00
2023-05-10T10:57:19.682Z,688.00
2023-05-10T10:58:19.719Z,732.00
2023-05-10T10:59:19.722Z,729.00
2023-05-10T11:00:19.751Z,726.00
2023-05-10T11:01:19.790Z,731.00
2023-05-10T11:02:19.813Z,730.00
2023-05-10T11:03:19.877Z,719.00
2023-05-10T11:04:19.884Z,718.00
2023-05-10T11:05:19.894Z,721.00
2023-05-10T11:06:19.971Z,697.00
2023-05-10T11:07:20.005Z,694.00
2023-05-10T11:08:20.097Z,695.00
2023-05-10T11:09:20.150Z,701.00
2023-05-10T11:10:20.165Z,710.00
2023-05-10T11:11:20.179Z,711.00
2023-05-10T11:12:20.281Z,714.00
2023-05-10T11:13:20.324Z,713.00
2023-05-10T11:14:20.335Z,715.00
2023-05-10T11:15:20.344Z,729.00
2023-05-10T11:16:20.414Z,757.00
2023-05-10T11:17:20.397Z,760.00
2023-05-10T11:18:20.436Z,802.00
2023-05-10T11:19:20.405Z,816.00
2023-05-10T11:20:20.510Z,817.00
2023-05-10T11:21:20.443Z,796.00
2023-05-10T11:22:20.491Z,776.00
2023-05-10T11:23:20.607Z,768.00
2023-05-10T11:24:20.584Z,762.00
2023-05-10T11:25:20.656Z,756.00
2023-05-10T11:26:20.695Z,755.00
2023-05-10T11:27:20.748Z,761.00
2023-05-10T11:28:20.876Z,761.00
2023-05-10T11:29:20.860Z,753.00
2023-05-10T11:30:21.092Z,739.00
2023-05-10T11:31:21.044Z,728.00
2023-05-10T11:32:20.973Z,727.00
2023-05-10T11:33:22.136Z,739.00
2023-05-10T11:34:21.118Z,744.00
2023-05-10T11:35:21.184Z,754.00
2023-05-10T11:36:21.199Z,802.00
2023-05-10T11:37:21.262Z,807.00
2023-05-10T11:38:21.326Z,823.00
2023-05-10T11:39:21.400Z,842.00
2023-05-10T11:40:21.564Z,843.00
2023-05-10T11:41:21.515Z,848.00
2023-05-10T11:42:21.546Z,850.00
2023-05-10T11:43:21.610Z,874.00
2023-05-10T11:44:21.679Z,881.00
2023-05-10T11:45:21.752Z,904.00
2023-05-10T11:46:21.828Z,911.00
2023-05-10T11:47:21.851Z,914.00
2023-05-10T11:48:21.913Z,927.00
2023-05-10T11:49:21.962Z,930.00
2023-05-10T11:50:21.991Z,936.00
2023-05-10T11:51:22.095Z,946.00
2023-05-10T11:52:22.155Z,976.00
2023-05-10T11:53:23.725Z,986.00
2023-05-10T11:54:22.353Z,992.00
2023-05-10T11:55:22.425Z,1001.00
2023-05-10T11:56:22.445Z,1020.00
2023-05-10T11:57:22.512Z,1041.00
2023-05-10T11:58:22.568Z,1049.00
2023-05-10T11:59:22.666Z,1050.00
2023-05-10T12:00:22.671Z,1068.00
2023-05-10T12:01:22.717Z,1079.00
2023-05-10T12:02:22.819Z,1071.00
2023-05-10T12:03:22.842Z,1073.00
2023-05-10T12:04:22.985Z,1097.00
2023-05-10T12:05:22.882Z,1098.00
2023-05-10T12:06:22.940Z,1147.00
2023-05-10T12:07:22.965Z,1152.00
2023-05-10T12:08:23.005Z,1118.00
2023-05-10T12:09:39.556Z,982.00
2023-05-10T12:10:24.066Z,929.00
2023-05-10T12:11:23.033Z,959.00
2023-05-10T12:12:23.030Z,931.00
2023-05-10T12:13:23.030Z,949.00
2023-05-10T12:14:23.057Z,869.00
2023-05-10T12:15:23.010Z,855.00
2023-05-10T12:16:23.040Z,899.00
2023-05-10T12:17:22.982Z,989.00
2023-05-10T12:18:22.981Z,971.00
2023-05-10T12:19:22.998Z,968.00
2023-05-10T12:20:23.025Z,861.00
2023-05-10T12:21:23.129Z,701.00
2023-05-10T12:22:23.138Z,647.00
2023-05-10T12:23:23.106Z,639.00
2023-05-10T12:24:23.187Z,597.00
2023-05-10T12:25:23.211Z,594.00
2023-05-10T12:26:23.246Z,558.00
2023-05-10T12:27:23.293Z,535.00
2023-05-10T12:28:23.381Z,546.00
2023-05-10T12:29:23.446Z,580.00
2023-05-10T12:30:23.475Z,605.00
2023-05-10T12:31:23.510Z,604.00
2023-05-10T12:32:23.550Z,597.00
2023-05-10T12:33:23.578Z,548.00
2023-05-10T12:34:23.637Z,552.00
2023-05-10T12:35:23.703Z,554.00
2023-05-10T12:36:23.760Z,541.00
2023-05-10T12:37:23.785Z,509.00
2023-05-10T12:38:23.858Z,583.00
2023-05-10T12:39:23.890Z,632.00
2023-05-10T12:40:23.989Z,620.00
2023-05-10T12:41:24.025Z,543.00
2023-05-10T12:42:24.103Z,544.00
2023-05-10T12:43:24.145Z,535.00
2023-05-10T12:44:24.191Z,641.00
2023-05-10T12:45:24.148Z,510.00
2023-05-10T12:46:24.301Z,518.00
2023-05-10T12:47:24.207Z,513.00
2023-05-10T12:48:24.231Z,514.00
2023-05-10T12:49:24.265Z,512.00
2023-05-10T12:50:24.332Z,511.00
2023-05-10T12:51:24.370Z,505.00
2023-05-10T12:52:24.456Z,505.00
2023-05-10T12:53:24.517Z,505.00
2023-05-10T12:54:24.528Z,503.00
2023-05-10T12:55:24.490Z,508.00
2023-05-10T12:56:24.503Z,524.00
2023-05-10T12:57:24.546Z,532.00
2023-05-10T12:58:35.068Z,536.00
2023-05-10T12:59:25.563Z,539.00
2023-05-10T13:00:24.582Z,540.00
2023-05-10T13:01:24.665Z,543.00
2023-05-10T13:02:24.580Z,549.00
2023-05-10T13:03:24.555Z,559.00
2023-05-10T13:04:26.271Z,569.00
2023-05-10T13:05:24.535Z,601.00
2023-05-10T13:06:24.504Z,614.00
2023-05-10T13:07:24.510Z,603.00
2023-05-10T13:08:24.550Z,604.00
2023-05-10T13:09:24.559Z,634.00
2023-05-10T13:10:24.494Z,631.00
2023-05-10T13:11:24.524Z,628.00
2023-05-10T13:12:24.528Z,632.00
2023-05-10T13:13:24.552Z,638.00
2023-05-10T13:14:24.591Z,645.00
2023-05-10T13:15:24.670Z,650.00
2023-05-10T13:16:24.817Z,655.00
2023-05-10T13:17:24.768Z,668.00
2023-05-10T13:18:25.018Z,674.00
2023-05-10T13:19:24.884Z,673.00
2023-05-10T13:20:24.840Z,680.00
2023-05-10T13:21:24.906Z,686.00
2023-05-10T13:22:36.492Z,692.00
2023-05-10T13:23:25.858Z,718.00
2023-05-10T13:24:24.938Z,738.00
2023-05-10T13:25:24.917Z,743.00
2023-05-10T13:26:24.860Z,746.00
2023-05-10T13:27:24.889Z,780.00
2023-05-10T13:28:24.830Z,787.00
2023-05-10T13:29:24.890Z,764.00
2023-05-10T13:30:24.837Z,749.00
2023-05-10T13:31:24.947Z,737.00
2023-05-10T13:32:24.835Z,742.00
2023-05-10T13:33:24.814Z,736.00
2023-05-10T13:34:24.859Z,734.00
2023-05-10T13:35:24.844Z,733.00
2023-05-10T13:36:24.793Z,731.00
2023-05-10T13:37:24.818Z,721.00
2023-05-10T13:38:24.777Z,709.00
2023-05-10T13:39:24.804Z,703.00
2023-05-10T13:40:24.787Z,703.00
2023-05-10T13:41:24.799Z,699.00
2023-05-10T13:42:24.756Z,695.00
2023-05-10T13:43:24.798Z,692.00
2023-05-10T13:44:24.799Z,684.00
2023-05-10T13:45:24.810Z,682.00
2023-05-10T13:46:24.840Z,678.00
2023-05-10T13:47:25.035Z,670.00
2023-05-10T13:48:24.868Z,666.00
2023-05-10T13:49:24.904Z,668.00
2023-05-10T13:50:24.887Z,665.00
2023-05-10T13:51:24.975Z,663.00
2023-05-10T13:52:25.043Z,663.00
2023-05-10T13:53:25.069Z,661.00
2023-05-10T13:54:25.149Z,662.00
2023-05-10T13:55:25.212Z,662.00
2023-05-10T13:56:25.232Z,659.00
2023-05-10T13:57:25.296Z,657.00
2023-05-10T13:58:25.393Z,655.00
2023-05-10T13:59:25.427Z,655.00
2023-05-10T14:00:25.477Z,656.00
2023-05-10T14:01:25.545Z,658.00
2023-05-10T14:02:25.779Z,665.00
2023-05-10T14:03:25.710Z,669.00
2023-05-10T14:04:25.698Z,674.00
2023-05-10T14:05:26.671Z,672.00
2023-05-10T14:06:25.799Z,673.00
2023-05-10T14:07:25.847Z,673.00
2023-05-10T14:08:25.886Z,679.00
2023-05-10T14:09:25.917Z,676.00
2023-05-10T14:10:25.947Z,677.00
2023-05-10T14:11:25.977Z,680.00
2023-05-10T14:12:26.001Z,683.00
2023-05-10T14:13:26.028Z,686.00
2023-05-10T14:14:26.092Z,688.00
2023-05-10T14:15:26.145Z,692.00
2023-05-10T14:16:26.211Z,706.00
2023-05-10T14:17:26.208Z,731.00
2023-05-10T14:18:26.268Z,734.00
2023-05-10T14:19:26.252Z,729.00
2023-05-10T14:20:26.293Z,734.00
2023-05-10T14:21:26.311Z,729.00
2023-05-10T14:22:26.311Z,728.00
2023-05-10T14:23:26.353Z,725.00
2023-05-10T14:24:26.396Z,721.00
2023-05-10T14:25:26.430Z,724.00
2023-05-10T14:26:26.503Z,725.00
2023-05-10T14:27:26.479Z,720.00
2023-05-10T14:28:26.541Z,715.00
2023-05-10T14:29:26.593Z,717.00
2023-05-10T14:30:26.527Z,719.00
2023-05-10T14:31:26.584Z,718.00
2023-05-10T14:32:26.579Z,719.00
2023-05-10T14:33:26.594Z,716.00
2023-05-10T14:34:26.609Z,715.00
2023-05-10T14:35:26.605Z,716.00
2023-05-10T14:36:26.768Z,711.00
2023-05-10T14:37:26.626Z,711.00
2023-05-10T14:38:26.679Z,712.00
2023-05-10T14:39:26.673Z,716.00
2023-05-10T14:40:26.673Z,726.00
2023-05-10T14:41:26.743Z,738.00
2023-05-10T14:42:26.762Z,742.00
2023-05-10T14:43:26.766Z,744.00
2023-05-10T14:44:26.732Z,759.00
2023-05-10T14:45:26.757Z,772.00
2023-05-10T14:46:26.925Z,763.00
2023-05-10T14:47:26.877Z,755.00
2023-05-10T14:48:26.781Z,748.00
2023-05-10T14:49:26.943Z,735.00
2023-05-10T14:51:27.811Z,755.00
2023-05-10T14:52:26.801Z,760.00
2023-05-10T14:53:26.803Z,744.00
2023-05-10T14:54:26.778Z,729.00
2023-05-10T14:55:26.754Z,735.00
2023-05-10T14:56:26.746Z,730.00
2023-05-10T14:57:26.758Z,726.00
2023-05-10T14:58:26.760Z,719.00
2023-05-10T14:59:26.761Z,714.00
2023-05-10T15:00:26.739Z,718.00
2023-05-10T15:01:26.788Z,722.00
2023-05-10T15:02:26.736Z,731.00
2023-05-10T15:03:26.899Z,734.00
2023-05-10T15:04:28.399Z,745.00
2023-05-10T15:05:26.669Z,751.00
2023-05-10T15:06:26.690Z,762.00
2023-05-10T15:07:26.706Z,772.00
2023-05-10T15:08:26.689Z,773.00
2023-05-10T15:09:26.689Z,775.00
2023-05-10T15:10:26.690Z,775.00
2023-05-10T15:11:26.637Z,778.00
2023-05-10T15:12:26.649Z,779.00
2023-05-10T15:13:26.653Z,775.00
2023-05-10T15:14:26.642Z,779.00
2023-05-10T15:15:26.646Z,780.00
2023-05-10T15:16:26.719Z,776.00
2023-05-10T15:17:26.655Z,775.00
2023-05-10T15:18:26.654Z,775.00
2023-05-10T15:19:26.579Z,781.00
2023-05-10T15:20:26.578Z,783.00
2023-05-10T15:21:26.606Z,576.00
2023-05-10T15:22:26.595Z,558.00
2023-05-10T15:23:26.623Z,550.00
2023-05-10T15:24:26.558Z,536.00
2023-05-10T15:25:26.535Z,505.00
2023-05-10T15:26:26.552Z,506.00
2023-05-10T15:27:26.526Z,541.00
2023-05-10T15:28:26.547Z,628.00
2023-05-10T15:29:26.520Z,611.00
2023-05-10T15:30:26.518Z,616.00
2023-05-10T15:31:26.586Z,617.00
2023-05-10T15:32:26.545Z,617.00
2023-05-10T15:33:26.503Z,624.00
2023-05-10T15:34:26.498Z,628.00
2023-05-10T15:35:26.469Z,635.00
2023-05-10T15:36:26.461Z,640.00
2023-05-10T15:37:26.448Z,644.00
2023-05-10T15:38:26.465Z,646.00
2023-05-10T15:39:26.448Z,646.00
2023-05-10T15:40:26.454Z,649.00
2023-05-10T15:41:26.441Z,652.00
2023-05-10T15:42:26.459Z,657.00
2023-05-10T15:43:26.423Z,657.00
2023-05-10T15:44:26.429Z,658.00
2023-05-10T15:45:26.421Z,658.00
2023-05-10T15:46:26.427Z,659.00
2023-05-10T15:47:26.410Z,660.00
2023-05-10T15:48:26.381Z,660.00
2023-05-10T15:49:26.371Z,656.00
2023-05-10T15:50:26.385Z,656.00
2023-05-10T15:51:26.383Z,655.00
2023-05-10T15:52:26.393Z,657.00
2023-05-10T15:53:26.339Z,655.00
2023-05-10T15:54:26.350Z,655.00
2023-05-10T15:55:26.351Z,654.00
2023-05-10T15:56:26.322Z,659.00
2023-05-10T15:57:26.360Z,658.00
2023-05-10T15:58:26.399Z,657.00
2023-05-10T15:59:26.469Z,658.00
2023-05-10T16:00:26.478Z,657.00
2023-05-10T16:01:26.612Z,656.00
2023-05-10T16:02:26.662Z,657.00
2023-05-10T16:03:26.742Z,657.00
2023-05-10T16:04:26.676Z,655.00
2023-05-10T16:05:26.737Z,653.00
2023-05-10T16:06:26.889Z,657.00
2023-05-10T16:07:26.848Z,656.00
2023-05-10T16:08:26.894Z,656.00
2023-05-10T16:09:26.938Z,658.00
2023-05-10T16:10:26.966Z,659.00
2023-05-10T16:11:27.033Z,660.00
2023-05-10T16:12:27.087Z,660.00
2023-05-10T16:13:27.134Z,659.00
2023-05-10T16:14:27.161Z,660.00
2023-05-10T16:15:27.172Z,661.00
2023-05-10T16:16:27.263Z,662.00
2023-05-10T16:17:27.316Z,662.00
2023-05-10T16:18:27.429Z,666.00
2023-05-10T16:19:29.694Z,666.00
2023-05-10T16:20:27.575Z,666.00
2023-05-10T16:21:27.618Z,668.00
2023-05-10T16:22:27.656Z,665.00
2023-05-10T16:23:27.720Z,662.00
2023-05-10T16:24:27.744Z,663.00
2023-05-10T16:25:27.815Z,663.00
2023-05-10T16:26:27.839Z,664.00
2023-05-10T16:27:27.904Z,666.00
2023-05-10T16:28:27.922Z,663.00
2023-05-10T16:29:27.949Z,664.00
2023-05-10T16:30:27.960Z,665.00
2023-05-10T16:31:28.113Z,666.00
2023-05-10T16:32:28.106Z,667.00
2023-05-10T16:33:28.120Z,667.00
2023-05-10T16:34:28.130Z,667.00
2023-05-10T16:35:28.211Z,667.00
2023-05-10T16:36:29.518Z,669.00
2023-05-10T16:37:28.252Z,667.00
2023-05-10T16:38:28.340Z,669.00
2023-05-10T16:39:28.347Z,667.00
2023-05-10T16:40:28.382Z,669.00
2023-05-10T16:41:28.404Z,668.00
2023-05-10T16:42:28.445Z,666.00
2023-05-10T16:43:28.479Z,667.00
2023-05-10T16:44:28.482Z,668.00
2023-05-10T16:45:28.549Z,667.00
2023-05-10T16:46:28.647Z,668.00
2023-05-10T16:47:28.613Z,670.00
2023-05-10T16:48:28.662Z,670.00
2023-05-10T16:49:28.681Z,671.00
2023-05-10T16:50:28.711Z,670.00
2023-05-10T16:51:28.756Z,669.00
2023-05-10T16:52:28.805Z,669.00
2023-05-10T16:53:28.839Z,666.00
2023-05-10T16:54:28.842Z,663.00
2023-05-10T16:55:28.889Z,663.00
2023-05-10T16:56:28.919Z,662.00
2023-05-10T16:57:29.003Z,661.00
2023-05-10T16:58:29.042Z,663.00
2023-05-10T16:59:29.060Z,664.00
2023-05-10T17:00:29.096Z,665.00
